Tokuyoshi Maru — JI3537 — position and weather

sailwx.info

Track history (hours):
 
Tides and Currents Weather Stations Pressure Air Temp Water Temp Dewpoint Dewpoint Depression Visibility Wind Speed Wind Dir Waves Ship Positions

Tokuyoshi Maru

Last reported at 2017-Dec-11 16:59 UTC. Time now 2017-Dec-12 02:52 UTC.
Position N 34°33' E 135°26'.

Length 48 m.

Type: Tanker. MMSI: 431300099.

Date/timePositionNaut miles runAvg speedWind from/ knotsBaromVisibWave heightAir tempDewpointWater temp
2017-Dec-11 16:59N 34°33' E 135°26'0 0.0
2017-Dec-11 16:29N 34°33' E 135°26'0 0.0
2017-Dec-11 15:59N 34°33' E 135°26'0 0.0
2017-Dec-11 15:26N 34°33' E 135°26'0 0.0
2017-Dec-11 14:56N 34°33' E 135°26'0 0.0
2017-Dec-11 14:29N 34°33' E 135°26'0 0.0
2017-Dec-11 13:59N 34°33' E 135°26'0 0.0
2017-Dec-11 13:29N 34°33' E 135°26'0 0.0
2017-Dec-11 13:00N 34°33' E 135°26'0 0.0
2017-Dec-11 12:30N 34°33' E 135°26'0 0.0
2017-Dec-11 11:59N 34°33' E 135°26'0 0.0
2017-Dec-11 11:30N 34°33' E 135°26'0 0.0
2017-Dec-11 11:00N 34°33' E 135°26'0 0.0
2017-Dec-11 10:30N 34°33' E 135°26'0 0.0
2017-Dec-11 10:00N 34°33' E 135°26'0 0.0
2017-Dec-11 09:30N 34°33' E 135°26'0 0.0
2017-Dec-11 09:00N 34°33' E 135°26'0 0.0
2017-Dec-11 08:29N 34°33' E 135°26'0 0.0
2017-Dec-11 07:57N 34°33' E 135°26'0 0.0
2017-Dec-11 07:29N 34°33' E 135°26'1 2.4
2017-Dec-11 07:00N 34°33' E 135°25'510.3
2017-Dec-11 06:30N 34°31' E 135°19'511.0
2017-Dec-11 06:00N 34°28' E 135°14'611.3
2017-Dec-11 05:30N 34°24' E 135°09'611.2
2017-Dec-11 05:00N 34°20' E 135°04'711.2
2017-Dec-11 04:25N 34°15' E 134°58'511.2
2017-Dec-11 03:58N 34°12' E 134°54'  
2017-Dec-08 03:14N 34°12' E 135°05'310.8
2017-Dec-08 02:59N 34°15' E 135°04'4 8.8
2017-Dec-08 02:30N 34°19' E 135°05'5 9.4
2017-Dec-08 02:00N 34°23' E 135°08'5 9.4
2017-Dec-08 01:30N 34°26' E 135°12'510.2
2017-Dec-08 01:00N 34°30' E 135°17'510.2
2017-Dec-08 00:30N 34°33' E 135°21'510.0
2017-Dec-08 00:00N 34°37' E 135°25'3 5.1
2017-Dec-07 23:30N 34°39' E 135°27'0 0.0
2017-Dec-07 23:00N 34°39' E 135°27'0 0.0
2017-Dec-07 22:29N 34°39' E 135°27'0 0.0
2017-Dec-07 21:59N 34°39' E 135°27'0 0.0
2017-Dec-07 21:23N 34°39' E 135°27'0 0.0
2017-Dec-07 20:59N 34°39' E 135°27'0 0.0
2017-Dec-07 20:29N 34°39' E 135°27'0 0.0
2017-Dec-07 19:59N 34°39' E 135°27'0 0.0
2017-Dec-07 19:29N 34°39' E 135°27'0 0.0
2017-Dec-07 18:59N 34°39' E 135°27'0 0.0
2017-Dec-07 18:29N 34°39' E 135°27'0 0.0
2017-Dec-07 17:59N 34°39' E 135°27'0 0.0
2017-Dec-07 17:29N 34°39' E 135°27'0 0.0
2017-Dec-07 17:00N 34°39' E 135°27'0 0.0
2017-Dec-07 16:29N 34°39' E 135°27'0 0.0
2017-Dec-07 15:58N 34°39' E 135°27'0 0.0
2017-Dec-07 15:29N 34°39' E 135°27'0 0.0
2017-Dec-07 14:59N 34°39' E 135°27'0 0.0
2017-Dec-07 14:30N 34°39' E 135°27'0 0.0
2017-Dec-07 14:00N 34°39' E 135°27'0 0.0
2017-Dec-07 13:29N 34°39' E 135°27'0 0.0
2017-Dec-07 12:59N 34°39' E 135°27'0 0.0
2017-Dec-07 12:29N 34°39' E 135°27'0 0.0
2017-Dec-07 11:59N 34°39' E 135°27'0 0.0
2017-Dec-07 11:29N 34°39' E 135°27'0 0.0
2017-Dec-07 10:59N 34°39' E 135°27'0 0.0
2017-Dec-07 10:29N 34°39' E 135°27'0 0.0
2017-Dec-07 09:56N 34°39' E 135°27'0 0.0
2017-Dec-07 09:29N 34°39' E 135°27'0 0.0
2017-Dec-07 08:59N 34°39' E 135°27'0 0.0
2017-Dec-07 08:29N 34°39' E 135°27'0 0.0
2017-Dec-07 07:59N 34°39' E 135°27'0 0.0
2017-Dec-07 07:29N 34°39' E 135°27'0 0.0
2017-Dec-07 07:00N 34°39' E 135°27'0 0.0
2017-Dec-07 06:30N 34°39' E 135°27'0 0.0
2017-Dec-07 06:00N 34°39' E 135°27'0 0.0
2017-Dec-07 05:29N 34°39' E 135°27'3 6.6
2017-Dec-07 05:00N 34°40' E 135°24'510.6
2017-Dec-07 04:30N 34°42' E 135°18'3 5.0
2017-Dec-07 03:59N 34°42' E 135°15'0 0.0
2017-Dec-07 03:29N 34°42' E 135°15'0 0.0
2017-Dec-07 02:59N 34°42' E 135°15'0 0.0
2017-Dec-07 02:29N 34°42' E 135°15'0 0.4
2017-Dec-07 02:00N 34°42' E 135°15'3 5.4
2017-Dec-07 01:30N 34°39' E 135°16'510.3
2017-Dec-07 01:00N 34°36' E 135°21'4 8.6
2017-Dec-07 00:30N 34°33' E 135°25'1 1.8
2017-Dec-06 23:58N 34°33' E 135°26'0 0.1
2017-Dec-06 23:28N 34°33' E 135°26'0 0.0
2017-Dec-06 22:58N 34°33' E 135°26'0 0.1
2017-Dec-06 22:30N 34°33' E 135°26'2 4.2
2017-Dec-06 22:00N 34°35' E 135°24'5 9.5
2017-Dec-06 21:30N 34°39' E 135°27'1 1.1
2017-Dec-06 21:00N 34°39' E 135°27'  
Track history (hours):
 
Tides and Currents Weather Stations Pressure Air Temp Water Temp Dewpoint Dewpoint Depression Visibility Wind Speed Wind Dir Waves Ship Positions

Tokuyoshi Maru

Last reported at 2017-Dec-11 16:59 UTC. Time now 2017-Dec-12 02:52 UTC.
Position N 34°33' E 135°26'.

Length 48 m.

Type: Tanker. MMSI: 431300099.

Date/timePositionNaut miles runAvg speedWind from/ knotsBaromVisibWave heightAir tempDewpointWater temp
2017-Dec-11 16:59N 34°33' E 135°26'0 0.0
2017-Dec-11 16:29N 34°33' E 135°26'0 0.0
2017-Dec-11 15:59N 34°33' E 135°26'0 0.0
2017-Dec-11 15:26N 34°33' E 135°26'0 0.0
2017-Dec-11 14:56N 34°33' E 135°26'0 0.0
2017-Dec-11 14:29N 34°33' E 135°26'0 0.0
2017-Dec-11 13:59N 34°33' E 135°26'0 0.0
2017-Dec-11 13:29N 34°33' E 135°26'0 0.0
2017-Dec-11 13:00N 34°33' E 135°26'0 0.0
2017-Dec-11 12:30N 34°33' E 135°26'0 0.0
2017-Dec-11 11:59N 34°33' E 135°26'0 0.0
2017-Dec-11 11:30N 34°33' E 135°26'0 0.0
2017-Dec-11 11:00N 34°33' E 135°26'0 0.0
2017-Dec-11 10:30N 34°33' E 135°26'0 0.0
2017-Dec-11 10:00N 34°33' E 135°26'0 0.0
2017-Dec-11 09:30N 34°33' E 135°26'0 0.0
2017-Dec-11 09:00N 34°33' E 135°26'0 0.0
2017-Dec-11 08:29N 34°33' E 135°26'0 0.0
2017-Dec-11 07:57N 34°33' E 135°26'0 0.0
2017-Dec-11 07:29N 34°33' E 135°26'1 2.4
2017-Dec-11 07:00N 34°33' E 135°25'510.3
2017-Dec-11 06:30N 34°31' E 135°19'511.0
2017-Dec-11 06:00N 34°28' E 135°14'611.3
2017-Dec-11 05:30N 34°24' E 135°09'611.2
2017-Dec-11 05:00N 34°20' E 135°04'711.2
2017-Dec-11 04:25N 34°15' E 134°58'511.2
2017-Dec-11 03:58N 34°12' E 134°54'  
2017-Dec-08 03:14N 34°12' E 135°05'310.8
2017-Dec-08 02:59N 34°15' E 135°04'4 8.8
2017-Dec-08 02:30N 34°19' E 135°05'5 9.4
2017-Dec-08 02:00N 34°23' E 135°08'5 9.4
2017-Dec-08 01:30N 34°26' E 135°12'510.2
2017-Dec-08 01:00N 34°30' E 135°17'510.2
2017-Dec-08 00:30N 34°33' E 135°21'510.0
2017-Dec-08 00:00N 34°37' E 135°25'3 5.1
2017-Dec-07 23:30N 34°39' E 135°27'0 0.0
2017-Dec-07 23:00N 34°39' E 135°27'0 0.0
2017-Dec-07 22:29N 34°39' E 135°27'0 0.0
2017-Dec-07 21:59N 34°39' E 135°27'0 0.0
2017-Dec-07 21:23N 34°39' E 135°27'0 0.0
2017-Dec-07 20:59N 34°39' E 135°27'0 0.0
2017-Dec-07 20:29N 34°39' E 135°27'0 0.0
2017-Dec-07 19:59N 34°39' E 135°27'0 0.0
2017-Dec-07 19:29N 34°39' E 135°27'0 0.0
2017-Dec-07 18:59N 34°39' E 135°27'0 0.0
2017-Dec-07 18:29N 34°39' E 135°27'0 0.0
2017-Dec-07 17:59N 34°39' E 135°27'0 0.0
2017-Dec-07 17:29N 34°39' E 135°27'0 0.0
2017-Dec-07 17:00N 34°39' E 135°27'0 0.0
2017-Dec-07 16:29N 34°39' E 135°27'0 0.0
2017-Dec-07 15:58N 34°39' E 135°27'0 0.0
2017-Dec-07 15:29N 34°39' E 135°27'0 0.0
2017-Dec-07 14:59N 34°39' E 135°27'0 0.0
2017-Dec-07 14:30N 34°39' E 135°27'0 0.0
2017-Dec-07 14:00N 34°39' E 135°27'0 0.0
2017-Dec-07 13:29N 34°39' E 135°27'0 0.0
2017-Dec-07 12:59N 34°39' E 135°27'0 0.0
2017-Dec-07 12:29N 34°39' E 135°27'0 0.0
2017-Dec-07 11:59N 34°39' E 135°27'0 0.0
2017-Dec-07 11:29N 34°39' E 135°27'0 0.0
2017-Dec-07 10:59N 34°39' E 135°27'0 0.0
2017-Dec-07 10:29N 34°39' E 135°27'0 0.0
2017-Dec-07 09:56N 34°39' E 135°27'0 0.0
2017-Dec-07 09:29N 34°39' E 135°27'0 0.0
2017-Dec-07 08:59N 34°39' E 135°27'0 0.0
2017-Dec-07 08:29N 34°39' E 135°27'0 0.0
2017-Dec-07 07:59N 34°39' E 135°27'0 0.0
2017-Dec-07 07:29N 34°39' E 135°27'0 0.0
2017-Dec-07 07:00N 34°39' E 135°27'0 0.0
2017-Dec-07 06:30N 34°39' E 135°27'0 0.0
2017-Dec-07 06:00N 34°39' E 135°27'0 0.0
2017-Dec-07 05:29N 34°39' E 135°27'3 6.6
2017-Dec-07 05:00N 34°40' E 135°24'510.6
2017-Dec-07 04:30N 34°42' E 135°18'3 5.0
2017-Dec-07 03:59N 34°42' E 135°15'0 0.0
2017-Dec-07 03:29N 34°42' E 135°15'0 0.0
2017-Dec-07 02:59N 34°42' E 135°15'0 0.0
2017-Dec-07 02:29N 34°42' E 135°15'0 0.4
2017-Dec-07 02:00N 34°42' E 135°15'3 5.4
2017-Dec-07 01:30N 34°39' E 135°16'510.3
2017-Dec-07 01:00N 34°36' E 135°21'4 8.6
2017-Dec-07 00:30N 34°33' E 135°25'1 1.8
2017-Dec-06 23:58N 34°33' E 135°26'0 0.1
2017-Dec-06 23:28N 34°33' E 135°26'0 0.0
2017-Dec-06 22:58N 34°33' E 135°26'0 0.1
2017-Dec-06 22:30N 34°33' E 135°26'2 4.2
2017-Dec-06 22:00N 34°35' E 135°24'5 9.5
2017-Dec-06 21:30N 34°39' E 135°27'1 1.1
2017-Dec-06 21:00N 34°39' E 135°27'  

Dump ship's entire track history